sensor_id;sensor_type;location;lat;lon;timestamp;pressure;altitude;pressure_sealevel;temperature;humidity
55757;BME280;41676;44.610;44.078;2023-04-01T00:03:13;100562.31;;;0.60;69.81
55757;BME280;41676;44.610;44.078;2023-04-01T00:08:14;100566.00;;;0.57;70.04
55757;BME280;41676;44.610;44.078;2023-04-01T00:13:15;100541.72;;;0.55;69.70
55757;BME280;41676;44.610;44.078;2023-04-01T00:18:16;100513.31;;;0.36;70.49
55757;BME280;41676;44.610;44.078;2023-04-01T00:23:18;100472.16;;;0.13;71.36
55757;BME280;41676;44.610;44.078;2023-04-01T00:28:19;100523.19;;;0.45;71.37
55757;BME280;41676;44.610;44.078;2023-04-01T00:33:20;100517.13;;;0.45;71.20
55757;BME280;41676;44.610;44.078;2023-04-01T00:38:21;100535.31;;;0.47;71.47
55757;BME280;41676;44.610;44.078;2023-04-01T00:43:22;100535.41;;;0.45;72.04
55757;BME280;41676;44.610;44.078;2023-04-01T00:48:30;100467.34;;;-0.08;72.43
55757;BME280;41676;44.610;44.078;2023-04-01T00:53:32;100502.94;;;0.08;72.54
55757;BME280;41676;44.610;44.078;2023-04-01T00:58:40;100528.47;;;0.17;72.96
55757;BME280;41676;44.610;44.078;2023-04-01T01:03:42;100509.13;;;-0.08;71.81
55757;BME280;41676;44.610;44.078;2023-04-01T01:14:26;100573.91;;;0.29;75.55
55757;BME280;41676;44.610;44.078;2023-04-01T01:30:27;100490.53;;;-0.44;75.60
55757;BME280;41676;44.610;44.078;2023-04-01T01:35:38;100530.03;;;-0.22;74.75
55757;BME280;41676;44.610;44.078;2023-04-01T01:40:43;100559.22;;;-0.15;73.83
55757;BME280;41676;44.610;44.078;2023-04-01T01:45:52;100553.72;;;-0.25;76.03
55757;BME280;41676;44.610;44.078;2023-04-01T01:50:55;100528.09;;;-0.47;75.06
55757;BME280;41676;44.610;44.078;2023-04-01T01:55:55;100580.94;;;-0.29;74.48
55757;BME280;41676;44.610;44.078;2023-04-01T02:00:59;100529.09;;;-0.64;74.18
55757;BME280;41676;44.610;44.078;2023-04-01T02:06:01;100587.09;;;-0.30;76.05
55757;BME280;41676;44.610;44.078;2023-04-01T02:11:10;100570.56;;;-0.59;75.25
55757;BME280;41676;44.610;44.078;2023-04-01T02:16:20;100495.16;;;-0.93;75.24
55757;BME280;41676;44.610;44.078;2023-04-01T02:21:26;100576.38;;;-0.40;74.02
55757;BME280;41676;44.610;44.078;2023-04-01T02:26:28;100545.78;;;-0.52;73.99
55757;BME280;41676;44.610;44.078;2023-04-01T02:31:30;100587.25;;;-0.33;74.02
55757;BME280;41676;44.610;44.078;2023-04-01T02:36:32;100503.00;;;-0.93;73.79
55757;BME280;41676;44.610;44.078;2023-04-01T02:41:39;100584.81;;;-0.65;74.44
55757;BME280;41676;44.610;44.078;2023-04-01T02:46:41;100501.72;;;-1.16;73.84
55757;BME280;41676;44.610;44.078;2023-04-01T02:51:42;100583.41;;;-0.71;74.20
55757;BME280;41676;44.610;44.078;2023-04-01T02:56:44;100571.56;;;-0.76;75.36
55757;BME280;41676;44.610;44.078;2023-04-01T03:01:45;100548.75;;;-0.73;74.93
55757;BME280;41676;44.610;44.078;2023-04-01T03:06:46;100578.41;;;-0.45;74.91
55757;BME280;41676;44.610;44.078;2023-04-01T03:11:47;100579.94;;;-0.27;74.38
55757;BME280;41676;44.610;44.078;2023-04-01T03:16:48;100510.00;;;-0.50;75.14
55757;BME280;41676;44.610;44.078;2023-04-01T03:21:49;100581.31;;;0.08;74.57
55757;BME280;41676;44.610;44.078;2023-04-01T03:26:49;100586.22;;;0.27;73.82
55757;BME280;41676;44.610;44.078;2023-04-01T03:31:50;100578.50;;;0.52;73.30
55757;BME280;41676;44.610;44.078;2023-04-01T03:36:52;100598.75;;;0.90;73.01
55757;BME280;41676;44.610;44.078;2023-04-01T03:41:52;100508.00;;;0.78;72.67
55757;BME280;41676;44.610;44.078;2023-04-01T03:46:53;100596.44;;;1.76;72.35
55757;BME280;41676;44.610;44.078;2023-04-01T03:51:55;100585.75;;;2.42;71.71
55757;BME280;41676;44.610;44.078;2023-04-01T03:56:56;100581.59;;;3.11;70.33
55757;BME280;41676;44.610;44.078;2023-04-01T04:01:58;100584.56;;;4.09;69.72
55757;BME280;41676;44.610;44.078;2023-04-01T04:06:58;100584.16;;;4.91;68.96
55757;BME280;41676;44.610;44.078;2023-04-01T04:12:00;100586.78;;;5.65;67.33
55757;BME280;41676;44.610;44.078;2023-04-01T04:17:01;100532.03;;;5.79;66.95
55757;BME280;41676;44.610;44.078;2023-04-01T04:22:02;100533.38;;;5.94;65.52
55757;BME280;41676;44.610;44.078;2023-04-01T04:27:03;100563.13;;;6.15;65.04
55757;BME280;41676;44.610;44.078;2023-04-01T04:32:04;100584.91;;;6.58;64.08
55757;BME280;41676;44.610;44.078;2023-04-01T04:37:05;100583.81;;;6.60;63.32
55757;BME280;41676;44.610;44.078;2023-04-01T04:42:06;100584.63;;;6.61;62.53
55757;BME280;41676;44.610;44.078;2023-04-01T04:47:07;100509.16;;;5.89;61.77
55757;BME280;41676;44.610;44.078;2023-04-01T04:52:07;100579.13;;;6.14;61.40
55757;BME280;41676;44.610;44.078;2023-04-01T04:57:08;100533.34;;;5.63;61.35
55757;BME280;41676;44.610;44.078;2023-04-01T05:02:09;100545.59;;;5.74;61.09
55757;BME280;41676;44.610;44.078;2023-04-01T05:07:10;100577.84;;;6.08;61.05
55757;BME280;41676;44.610;44.078;2023-04-01T05:12:11;100561.56;;;6.03;61.04
55757;BME280;41676;44.610;44.078;2023-04-01T05:17:13;100564.84;;;6.26;60.37
55757;BME280;41676;44.610;44.078;2023-04-01T05:22:15;100555.47;;;6.72;60.44
55757;BME280;41676;44.610;44.078;2023-04-01T05:27:16;100511.28;;;6.94;58.71
55757;BME280;41676;44.610;44.078;2023-04-01T05:32:17;100509.91;;;7.09;58.92
55757;BME280;41676;44.610;44.078;2023-04-01T05:37:18;100567.78;;;7.59;58.61
55757;BME280;41676;44.610;44.078;2023-04-01T05:42:19;100517.41;;;7.61;58.31
55757;BME280;41676;44.610;44.078;2023-04-01T05:47:19;100564.28;;;8.06;57.94
55757;BME280;41676;44.610;44.078;2023-04-01T05:52:20;100565.94;;;8.34;58.04
55757;BME280;41676;44.610;44.078;2023-04-01T05:57:21;100571.38;;;8.60;57.19
55757;BME280;41676;44.610;44.078;2023-04-01T06:02:22;100507.69;;;8.34;56.84
55757;BME280;41676;44.610;44.078;2023-04-01T06:07:23;100558.00;;;9.16;55.96
55757;BME280;41676;44.610;44.078;2023-04-01T06:12:42;100555.28;;;9.51;53.50
55757;BME280;41676;44.610;44.078;2023-04-01T06:39:22;100531.03;;;11.06;43.84
55757;BME280;41676;44.610;44.078;2023-04-01T06:44:43;100533.00;;;11.45;44.23
55757;BME280;41676;44.610;44.078;2023-04-01T06:49:59;100513.94;;;11.81;44.48
55757;BME280;41676;44.610;44.078;2023-04-01T06:55:27;100479.53;;;11.79;40.30
55757;BME280;41676;44.610;44.078;2023-04-01T07:00:39;100505.16;;;12.51;38.55
55757;BME280;41676;44.610;44.078;2023-04-01T07:05:41;100505.88;;;12.91;39.41
55757;BME280;41676;44.610;44.078;2023-04-01T07:11:05;100433.28;;;12.66;36.34
55757;BME280;41676;44.610;44.078;2023-04-01T07:16:32;100496.06;;;13.29;33.59
55757;BME280;41676;44.610;44.078;2023-04-01T07:21:48;100487.06;;;13.60;37.24
55757;BME280;41676;44.610;44.078;2023-04-01T07:26:53;100484.28;;;13.68;36.37
55757;BME280;41676;44.610;44.078;2023-04-01T07:37:21;100471.59;;;14.21;37.13
55757;BME280;41676;44.610;44.078;2023-04-01T07:53:18;100462.41;;;14.45;34.90
55757;BME280;41676;44.610;44.078;2023-04-01T08:21:03;100438.72;;;15.13;33.63
55757;BME280;41676;44.610;44.078;2023-04-01T08:55:51;100421.81;;;15.41;29.95
55757;BME280;41676;44.610;44.078;2023-04-01T09:01:21;100433.47;;;15.26;30.59
55757;BME280;41676;44.610;44.078;2023-04-01T09:06:36;100427.28;;;15.26;30.25
55757;BME280;41676;44.610;44.078;2023-04-01T09:33:34;100402.50;;;15.52;29.63
55757;BME280;41676;44.610;44.078;2023-04-01T09:44:36;100322.84;;;15.13;31.28
55757;BME280;41676;44.610;44.078;2023-04-01T10:28:47;100322.97;;;16.14;30.60
55757;BME280;41676;44.610;44.078;2023-04-01T10:50:01;100320.69;;;15.97;29.31
55757;BME280;41676;44.610;44.078;2023-04-01T11:10:50;100241.75;;;16.33;29.89
55757;BME280;41676;44.610;44.078;2023-04-01T11:38:20;100214.72;;;16.08;28.31
55757;BME280;41676;44.610;44.078;2023-04-01T12:20:33;100267.47;;;15.81;29.76
55757;BME280;41676;44.610;44.078;2023-04-01T12:31:03;100206.69;;;15.88;29.79
55757;BME280;41676;44.610;44.078;2023-04-01T13:14:31;100255.66;;;14.94;30.42
55757;BME280;41676;44.610;44.078;2023-04-01T13:25:23;100268.91;;;14.74;31.85
55757;BME280;41676;44.610;44.078;2023-04-01T13:30:40;100227.09;;;14.32;31.67
55757;BME280;41676;44.610;44.078;2023-04-01T13:35:49;100277.72;;;14.40;32.06
55757;BME280;41676;44.610;44.078;2023-04-01T13:52:06;100265.09;;;14.06;32.52
55757;BME280;41676;44.610;44.078;2023-04-01T14:24:03;100187.63;;;13.13;33.28
55757;BME280;41676;44.610;44.078;2023-04-01T14:29:24;100201.50;;;13.09;33.31
55757;BME280;41676;44.610;44.078;2023-04-01T14:50:49;100266.56;;;12.78;35.09
55757;BME280;41676;44.610;44.078;2023-04-01T14:56:01;100204.16;;;12.28;35.04
55757;BME280;41676;44.610;44.078;2023-04-01T15:11:33;100285.69;;;12.29;37.07
55757;BME280;41676;44.610;44.078;2023-04-01T15:16:59;100287.34;;;12.15;37.99
55757;BME280;41676;44.610;44.078;2023-04-01T15:22:32;100292.50;;;11.94;38.47
55757;BME280;41676;44.610;44.078;2023-04-01T15:27:50;100296.81;;;11.63;38.81
55757;BME280;41676;44.610;44.078;2023-04-01T15:33:24;100294.63;;;11.44;40.33
55757;BME280;41676;44.610;44.078;2023-04-01T15:38:54;100308.03;;;11.19;40.50
55757;BME280;41676;44.610;44.078;2023-04-01T15:43:57;100308.66;;;10.82;40.27
55757;BME280;41676;44.610;44.078;2023-04-01T16:05:24;100336.75;;;9.95;47.17
55757;BME280;41676;44.610;44.078;2023-04-01T16:10:52;100342.19;;;9.77;47.93
55757;BME280;41676;44.610;44.078;2023-04-01T16:21:21;100343.19;;;9.25;48.88
55757;BME280;41676;44.610;44.078;2023-04-01T16:26:43;100359.56;;;9.21;50.00
55757;BME280;41676;44.610;44.078;2023-04-01T16:37:21;100326.25;;;8.84;51.04
55757;BME280;41676;44.610;44.078;2023-04-01T16:47:45;100308.00;;;8.47;51.11
55757;BME280;41676;44.610;44.078;2023-04-01T16:53:09;100349.94;;;8.59;52.69
55757;BME280;41676;44.610;44.078;2023-04-01T17:03:52;100358.34;;;8.37;52.88
55757;BME280;41676;44.610;44.078;2023-04-01T17:35:24;100334.63;;;7.73;56.31
55757;BME280;41676;44.610;44.078;2023-04-01T17:45:54;100312.22;;;7.50;57.10
55757;BME280;41676;44.610;44.078;2023-04-01T18:23:39;100317.41;;;6.86;57.02
55757;BME280;41676;44.610;44.078;2023-04-01T18:28:48;100293.59;;;6.59;58.37
55757;BME280;41676;44.610;44.078;2023-04-01T18:39:16;100297.66;;;6.53;58.33
55757;BME280;41676;44.610;44.078;2023-04-01T18:44:29;100294.75;;;6.47;60.78
55757;BME280;41676;44.610;44.078;2023-04-01T18:49:55;100294.06;;;6.45;60.51
55757;BME280;41676;44.610;44.078;2023-04-01T19:00:22;100289.75;;;6.34;61.97
55757;BME280;41676;44.610;44.078;2023-04-01T19:05:34;100279.53;;;6.21;62.77
55757;BME280;41676;44.610;44.078;2023-04-01T19:10:45;100274.66;;;6.07;61.56
55757;BME280;41676;44.610;44.078;2023-04-01T19:21:19;100295.50;;;5.81;61.89
55757;BME280;41676;44.610;44.078;2023-04-01T19:42:39;100208.19;;;5.06;64.78
55757;BME280;41676;44.610;44.078;2023-04-01T19:53:37;100270.13;;;5.10;63.04
55757;BME280;41676;44.610;44.078;2023-04-01T19:58:58;100195.22;;;4.74;65.88
55757;BME280;41676;44.610;44.078;2023-04-01T20:04:10;100198.94;;;4.62;65.55
55757;BME280;41676;44.610;44.078;2023-04-01T20:14:40;100243.06;;;4.89;65.99
55757;BME280;41676;44.610;44.078;2023-04-01T20:24:50;100248.97;;;4.81;64.32
55757;BME280;41676;44.610;44.078;2023-04-01T20:29:56;100251.75;;;4.79;65.33
55757;BME280;41676;44.610;44.078;2023-04-01T20:40:33;100245.59;;;4.69;64.88
55757;BME280;41676;44.610;44.078;2023-04-01T20:51:06;100211.16;;;4.42;66.20
55757;BME280;41676;44.610;44.078;2023-04-01T20:56:32;100250.53;;;4.53;68.22
55757;BME280;41676;44.610;44.078;2023-04-01T21:38:38;100237.44;;;4.11;68.16
55757;BME280;41676;44.610;44.078;2023-04-01T22:00:19;100172.09;;;3.43;69.52
55757;BME280;41676;44.610;44.078;2023-04-01T22:10:35;100204.84;;;3.60;70.95
55757;BME280;41676;44.610;44.078;2023-04-01T22:21:14;100212.34;;;3.44;69.29
55757;BME280;41676;44.610;44.078;2023-04-01T22:42:17;100190.13;;;3.05;72.01
55757;BME280;41676;44.610;44.078;2023-04-01T22:47:46;100123.56;;;2.62;71.00
55757;BME280;41676;44.610;44.078;2023-04-01T22:52:47;100178.72;;;2.94;72.52
55757;BME280;41676;44.610;44.078;2023-04-01T22:57:53;100184.44;;;3.00;72.65
55757;BME280;41676;44.610;44.078;2023-04-01T23:08:43;100170.94;;;2.93;73.50
55757;BME280;41676;44.610;44.078;2023-04-01T23:14:01;100152.31;;;2.64;72.47
55757;BME280;41676;44.610;44.078;2023-04-01T23:19:26;100091.22;;;2.18;73.67
55757;BME280;41676;44.610;44.078;2023-04-01T23:24:46;100168.06;;;2.64;73.44
55757;BME280;41676;44.610;44.078;2023-04-01T23:29:51;100159.47;;;2.62;71.55
55757;BME280;41676;44.610;44.078;2023-04-01T23:35:00;100150.50;;;2.76;74.64
55757;BME280;41676;44.610;44.078;2023-04-01T23:40:00;100140.25;;;2.72;72.42
55757;BME280;41676;44.610;44.078;2023-04-01T23:45:13;100147.16;;;2.73;72.86
55757;BME280;41676;44.610;44.078;2023-04-01T23:50:20;100144.41;;;2.75;72.59
55757;BME280;41676;44.610;44.078;2023-04-01T23:55:30;100146.44;;;2.71;73.38
